Aviation Digital Data Service (ADDS)

Output produced by METARs form (0810 UTC 27 February 2020)
found at http://www.aviationweather.gov/metar/data/
 
METAR text: RJTE 270321Z 01018G30KT 330V030 9999 SCT020 11/00 Q1015 RMK 3CU020 A3000
Conditions at: RJTE (TATEYAMA (JMSDF), JP) observed 0321 UTC 27 February 2020
Temperature: 11.0°C (52°F)
Dewpoint: 0.0°C (32°F) [RH = 47%]
Pressure (altimeter): 29.97 inches Hg (1015.0 mb)
Winds: from the N (10 degrees) at 21 MPH (18 knots; 9.3 m/s)
gusting to 34 MPH (30 knots; 15.4 m/s)
Visibility: 6 or more miles (10+ km)
Ceiling: at least 12,000 feet AGL
Clouds: scattered clouds at 2000 feet AGL
Weather: no significant weather observed at this time

METAR text: RJTE 270133Z 36016G27KT 330V040 9999 FEW020 BKN080 10/M01 Q1016 RMK 1CU020 6AC080 A3002
Conditions at: RJTE (TATEYAMA (JMSDF), JP) observed 0133 UTC 27 February 2020
Temperature: 10.0°C (50°F)
Dewpoint: -1.0°C (30°F) [RH = 46%]
Pressure (altimeter): 30.00 inches Hg (1016.0 mb)
Winds: from the N (360 degrees) at 18 MPH (16 knots; 8.2 m/s)
gusting to 31 MPH (27 knots; 13.9 m/s)
Visibility: 6 or more miles (10+ km)
Ceiling: 8000 feet AGL
Clouds: few clouds at 2000 feet AGL
broken clouds at 8000 feet AGL
Weather: no significant weather observed at this time

METAR text: RJTE 260603Z 04008KT 010V070 9999 -RA SCT010 BKN015 BKN040 10/07 Q1012 RMK 4ST010 5SC015 7SC040 A2990
Conditions at: RJTE (TATEYAMA (JMSDF), JP) observed 0603 UTC 26 February 2020
Temperature: 10.0°C (50°F)
Dewpoint: 7.0°C (45°F) [RH = 82%]
Pressure (altimeter): 29.88 inches Hg (1012.0 mb)
Winds: from the NE (40 degrees) at 9 MPH (8 knots; 4.1 m/s)
Visibility: 6 or more miles (10+ km)
Ceiling: 1500 feet AGL
Clouds: scattered clouds at 1000 feet AGL
broken clouds at 1500 feet AGL
broken clouds at 4000 feet AGL
Weather: -RA  (light rain)

METAR text: RJTE 252140Z 02008KT 7000 FEW005 BKN010 BKN015 10/09 Q1013 RMK 1ST005 5ST010 7CU015 A2991
Conditions at: RJTE (TATEYAMA (JMSDF), JP) observed 2140 UTC 25 February 2020
Temperature: 10.0°C (50°F)
Dewpoint: 9.0°C (48°F) [RH = 93%]
Pressure (altimeter): 29.91 inches Hg (1013.0 mb)
Winds: from the NNE (20 degrees) at 9 MPH (8 knots; 4.1 m/s)
Visibility: 4 miles ( 7 km)
Ceiling: 1000 feet AGL
Clouds: few clouds at 500 feet AGL
broken clouds at 1000 feet AGL
broken clouds at 1500 feet AGL
Weather: no significant weather observed at this time

METAR text: RJTE 252105Z 02007KT 5000 -SHRA BR FEW005 SCT008 BKN015 10/09 Q1012 RMK 1ST005 4ST008 7CU015 A2989
Conditions at: RJTE (TATEYAMA (JMSDF), JP) observed 2105 UTC 25 February 2020
Temperature: 10.0°C (50°F)
Dewpoint: 9.0°C (48°F) [RH = 93%]
Pressure (altimeter): 29.88 inches Hg (1012.0 mb)
Winds: from the NNE (20 degrees) at 8 MPH (7 knots; 3.6 m/s)
Visibility: 3 miles ( 5 km)
Ceiling: 1500 feet AGL
Clouds: few clouds at 500 feet AGL
scattered clouds at 800 feet AGL
broken clouds at 1500 feet AGL
Weather: -SHRA BR  (light rain showers, mist)